Time;durP1;ratioP1;P1;durP2;ratioP2;P2;SDS_P1;SDS_P2;PMS_P1;PMS_P2;Temp;Humidity;BMP_temperature;BMP_pressure;BME280_temperature;BME280_humidity;BME280_pressure;Samples;Min_cycle;Max_cycle;Signal;HPM_P1;HPM_P2
2023/08/17 00:02:41;;;;;;;3.22;1.83;;;25.30;99.90;;;;;;10098862;28;20040;-72
2023/08/17 00:07:33;;;;;;;2.72;1.65;;;25.20;99.90;;;;;;10082841;28;20378;-74
2023/08/17 00:12:24;;;;;;;3.17;2.47;;;25.20;99.90;;;;;;10098381;28;20045;-75
2023/08/17 00:17:14;;;;;;;2.42;1.67;;;25.10;99.90;;;;;;10098828;28;20017;-74
2023/08/17 00:22:05;;;;;;;2.35;1.90;;;25.10;99.90;;;;;;10098718;28;20044;-75
2023/08/17 00:26:57;;;;;;;1.55;1.13;;;25.10;99.90;;;;;;10099369;28;20045;-74
2023/08/17 00:31:47;;;;;;;1.55;1.35;;;24.90;99.90;;;;;;10098291;28;20067;-74
2023/08/17 00:36:38;;;;;;;1.98;1.50;;;24.80;99.90;;;;;;10096085;28;20032;-70
2023/08/17 00:41:30;;;;;;;1.80;1.60;;;24.80;99.90;;;;;;10100515;28;20036;-74
2023/08/17 00:46:22;;;;;;;1.60;1.20;;;24.80;99.90;;;;;;10097704;28;20089;-72
2023/08/17 00:51:14;;;;;;;2.35;1.35;;;24.70;99.90;;;;;;10104222;28;20033;-73
2023/08/17 00:56:05;;;;;;;2.45;1.33;;;24.60;99.90;;;;;;10097400;28;20530;-74
2023/08/17 01:00:56;;;;;;;1.70;1.13;;;24.70;99.90;;;;;;10096911;28;20498;-71
2023/08/17 01:05:47;;;;;;;1.92;1.10;;;24.70;99.90;;;;;;10090633;28;20104;-73
2023/08/17 01:10:48;;;;;;;2.05;1.30;;;24.60;99.90;;;;;;10100481;28;20178;-74
2023/08/17 01:15:46;;;;;;;4.05;1.80;;;24.60;99.90;;;;;;10096238;28;20530;-73
2023/08/17 01:20:37;;;;;;;1.00;0.90;;;24.50;99.90;;;;;;10096589;28;20021;-73
2023/08/17 01:25:28;;;;;;;2.08;1.55;;;24.50;99.90;;;;;;10096655;28;20059;-73
2023/08/17 01:30:19;;;;;;;1.88;1.65;;;24.50;99.90;;;;;;10077853;28;20112;-75
2023/08/17 01:35:30;;;;;;;1.75;1.13;;;24.40;99.90;;;;;;10090929;28;20097;-74
2023/08/17 01:40:21;;;;;;;1.83;1.48;;;24.40;99.90;;;;;;10096249;28;20029;-72
2023/08/17 01:45:12;;;;;;;1.67;1.35;;;24.30;99.90;;;;;;10078173;28;20033;-75
2023/08/17 01:50:03;;;;;;;1.85;1.15;;;24.30;99.90;;;;;;10095953;28;20045;-75
2023/08/17 01:54:54;;;;;;;2.20;0.98;;;24.30;99.90;;;;;;10078210;28;20045;-75
2023/08/17 01:59:44;;;;;;;2.00;1.33;;;24.30;99.90;;;;;;10077957;28;20025;-74
2023/08/17 02:04:35;;;;;;;3.63;1.40;;;24.30;99.90;;;;;;10098635;28;20399;-73
2023/08/17 02:09:25;;;;;;;2.00;1.80;;;24.20;99.90;;;;;;10094697;28;20403;-75
2023/08/17 02:14:16;;;;;;;4.30;1.48;;;24.10;99.90;;;;;;10096010;28;20530;-74
2023/08/17 02:19:07;;;;;;;2.08;1.42;;;24.00;99.90;;;;;;10088420;28;20028;-75
2023/08/17 02:23:57;;;;;;;2.22;1.33;;;24.10;99.90;;;;;;10095279;28;20029;-75
2023/08/17 02:28:48;;;;;;;3.45;1.50;;;24.10;99.90;;;;;;10080310;28;20591;-74
2023/08/17 02:33:39;;;;;;;2.83;1.92;;;24.00;99.90;;;;;;10103462;28;20040;-74
2023/08/17 02:38:32;;;;;;;2.75;1.50;;;23.90;99.90;;;;;;10085077;28;20039;-74
2023/08/17 02:43:23;;;;;;;2.55;1.70;;;24.00;99.90;;;;;;10072148;28;20044;-75
2023/08/17 02:48:14;;;;;;;2.55;1.35;;;23.90;99.90;;;;;;10103510;28;20055;-75
2023/08/17 02:53:05;;;;;;;1.88;1.30;;;23.90;99.90;;;;;;10083898;28;20040;-76
2023/08/17 02:57:55;;;;;;;3.10;1.58;;;23.80;99.90;;;;;;10101977;28;20171;-76
2023/08/17 03:02:46;;;;;;;1.92;1.30;;;23.70;99.90;;;;;;10095209;28;20025;-75
2023/08/17 03:07:37;;;;;;;4.30;2.05;;;23.50;99.90;;;;;;10078884;28;20029;-75
2023/08/17 03:12:28;;;;;;;2.80;1.70;;;23.60;99.90;;;;;;10082794;28;20523;-73
2023/08/17 03:17:19;;;;;;;2.47;1.50;;;23.40;99.90;;;;;;10100621;28;20025;-75
2023/08/17 03:22:10;;;;;;;2.55;1.67;;;23.60;99.90;;;;;;10081336;28;20040;-75
2023/08/17 03:27:00;;;;;;;3.42;1.65;;;23.50;99.90;;;;;;10101609;28;20029;-75
2023/08/17 03:31:51;;;;;;;4.20;1.80;;;23.50;99.90;;;;;;10091213;28;20043;-75
2023/08/17 03:36:41;;;;;;;1.90;1.40;;;23.40;99.90;;;;;;10100686;28;20406;-75
2023/08/17 03:41:32;;;;;;;2.90;1.70;;;23.40;99.90;;;;;;10101360;28;20025;-75
2023/08/17 03:46:23;;;;;;;2.53;1.85;;;23.30;99.90;;;;;;10082667;28;20036;-76
2023/08/17 03:51:14;;;;;;;4.38;1.83;;;23.30;99.90;;;;;;10099264;28;20033;-73
2023/08/17 03:56:07;;;;;;;3.38;1.80;;;23.20;99.90;;;;;;10099286;28;20052;-75
2023/08/17 04:00:58;;;;;;;2.55;2.03;;;23.20;99.90;;;;;;10069617;28;20029;-74
2023/08/17 04:05:49;;;;;;;3.13;2.10;;;23.20;99.90;;;;;;10086239;28;20033;-75
2023/08/17 04:10:39;;;;;;;4.60;2.65;;;23.20;99.90;;;;;;10096785;28;20047;-75
2023/08/17 04:15:30;;;;;;;2.83;1.80;;;23.10;99.90;;;;;;10095895;28;20041;-76
2023/08/17 04:20:22;;;;;;;2.20;1.60;;;23.10;99.90;;;;;;10096542;28;20032;-76
2023/08/17 04:25:14;;;;;;;1.95;1.65;;;23.00;99.90;;;;;;10098916;28;20056;-76
2023/08/17 04:30:05;;;;;;;2.90;1.65;;;23.00;99.90;;;;;;10098623;28;20029;-75
2023/08/17 04:34:56;;;;;;;3.33;2.00;;;23.00;99.90;;;;;;10098298;28;20041;-75
2023/08/17 04:39:51;;;;;;;2.35;1.95;;;23.00;99.90;;;;;;10097663;28;20399;-76
2023/08/17 04:44:41;;;;;;;3.50;2.08;;;22.90;99.90;;;;;;10097795;28;20033;-76
2023/08/17 04:49:32;;;;;;;3.55;2.17;;;22.90;99.90;;;;;;10096774;28;20025;-77
2023/08/17 04:54:23;;;;;;;3.97;2.17;;;22.90;99.90;;;;;;10097396;28;20044;-76
2023/08/17 04:59:14;;;;;;;2.92;1.60;;;22.80;99.90;;;;;;10097145;28;20056;-77
2023/08/17 05:04:05;;;;;;;3.17;1.98;;;22.80;99.90;;;;;;10085802;28;20036;-75
2023/08/17 05:08:58;;;;;;;4.80;1.88;;;23.00;99.90;;;;;;10087883;28;20033;-76
2023/08/17 05:13:49;;;;;;;3.50;1.98;;;23.00;99.90;;;;;;10072076;28;20046;-77
2023/08/17 05:18:39;;;;;;;5.65;1.85;;;23.00;99.90;;;;;;10093929;28;20028;-76
2023/08/17 05:23:30;;;;;;;5.95;1.98;;;22.90;99.90;;;;;;10097433;28;20029;-75
2023/08/17 05:28:21;;;;;;;3.03;1.60;;;22.90;99.90;;;;;;10097883;28;20032;-76
2023/08/17 05:33:12;;;;;;;3.70;1.80;;;22.90;99.90;;;;;;10097227;28;20045;-76
2023/08/17 05:38:03;;;;;;;3.05;1.88;;;22.90;99.90;;;;;;10096443;28;20142;-76
2023/08/17 05:42:54;;;;;;;3.50;2.13;;;23.00;99.90;;;;;;10078351;28;20531;-75
2023/08/17 05:47:45;;;;;;;2.58;2.05;;;23.00;99.90;;;;;;10075509;28;20040;-75
2023/08/17 05:52:36;;;;;;;3.50;2.42;;;23.00;99.90;;;;;;10094939;28;20353;-76
2023/08/17 05:57:27;;;;;;;3.42;2.65;;;23.10;99.90;;;;;;10101328;28;20513;-75
2023/08/17 06:02:17;;;;;;;6.78;2.95;;;23.10;99.90;;;;;;10097478;28;20093;-76
2023/08/17 06:07:08;;;;;;;5.55;2.88;;;23.10;99.90;;;;;;10111486;28;20111;-75
2023/08/17 06:11:59;;;;;;;5.03;2.80;;;23.10;99.90;;;;;;10103197;28;20072;-76
2023/08/17 06:16:49;;;;;;;5.93;2.97;;;23.10;99.90;;;;;;10104070;28;20025;-74
2023/08/17 06:21:40;;;;;;;4.93;2.15;;;22.90;99.90;;;;;;10103093;28;20041;-74
2023/08/17 06:26:31;;;;;;;4.32;2.67;;;23.00;99.90;;;;;;10105232;28;20039;-74
2023/08/17 06:31:27;;;;;;;6.88;4.43;;;23.20;99.90;;;;;;10081793;28;20037;-72
2023/08/17 06:36:18;;;;;;;9.82;3.85;;;23.20;99.90;;;;;;10102367;28;20495;-74
2023/08/17 06:41:08;;;;;;;5.70;3.10;;;23.30;99.90;;;;;;10101839;28;20518;-73
2023/08/17 06:46:00;;;;;;;5.68;3.50;;;23.20;99.90;;;;;;10103585;28;20040;-71
2023/08/17 06:50:51;;;;;;;8.13;3.92;;;23.20;99.90;;;;;;10101756;28;20104;-73
2023/08/17 06:55:41;;;;;;;7.25;4.55;;;23.10;99.90;;;;;;10103372;28;20585;-72
2023/08/17 07:00:32;;;;;;;8.73;3.70;;;23.00;99.90;;;;;;10102349;28;20025;-76
2023/08/17 07:05:23;;;;;;;8.98;4.03;;;23.20;99.90;;;;;;10104859;28;20029;-72
2023/08/17 07:10:14;;;;;;;8.45;5.18;;;23.10;99.90;;;;;;10100799;28;20025;-73
2023/08/17 07:15:06;;;;;;;6.05;3.17;;;23.10;99.90;;;;;;10080871;28;20024;-73
2023/08/17 07:19:57;;;;;;;4.50;3.22;;;23.10;99.90;;;;;;10082891;28;20081;-73
2023/08/17 07:24:48;;;;;;;5.75;3.72;;;23.20;99.90;;;;;;10083015;28;20159;-74
2023/08/17 07:29:39;;;;;;;5.40;3.38;;;23.20;99.90;;;;;;10100190;28;20099;-72
2023/08/17 07:34:31;;;;;;;5.80;3.45;;;23.20;99.90;;;;;;10109034;28;20129;-73
2023/08/17 07:39:22;;;;;;;7.13;3.40;;;23.10;99.90;;;;;;10099186;28;20036;-72
2023/08/17 07:44:12;;;;;;;6.70;4.28;;;23.10;99.90;;;;;;10078858;28;20372;-73
2023/08/17 07:49:03;;;;;;;7.07;4.10;;;23.20;99.90;;;;;;10096517;28;20037;-74
2023/08/17 07:53:54;;;;;;;9.82;5.90;;;23.30;99.90;;;;;;10099681;28;20098;-73
2023/08/17 07:58:45;;;;;;;7.35;3.58;;;23.40;99.90;;;;;;10076431;28;20025;-73
2023/08/17 08:03:35;;;;;;;6.50;3.53;;;23.40;99.90;;;;;;10076483;28;20037;-73
2023/08/17 08:08:26;;;;;;;7.05;3.67;;;23.50;99.90;;;;;;10093731;28;20025;-72
2023/08/17 08:13:17;;;;;;;6.55;3.75;;;23.40;99.90;;;;;;10103947;28;20049;-73
2023/08/17 08:18:08;;;;;;;7.05;3.42;;;23.50;99.90;;;;;;10088222;28;20044;-72
2023/08/17 08:22:59;;;;;;;7.10;4.30;;;23.50;99.90;;;;;;10099467;28;20029;-72
2023/08/17 08:27:49;;;;;;;8.15;4.60;;;23.60;99.90;;;;;;10097768;28;20032;-72
2023/08/17 08:32:40;;;;;;;7.40;4.45;;;23.70;99.90;;;;;;10098332;28;20566;-72
2023/08/17 08:37:31;;;;;;;5.15;3.55;;;23.80;99.90;;;;;;10093515;28;20025;-73
2023/08/17 08:42:23;;;;;;;6.68;3.95;;;23.80;99.90;;;;;;10097767;28;20395;-72
2023/08/17 08:47:16;;;;;;;5.03;3.60;;;23.80;99.90;;;;;;10097803;28;20071;-72
2023/08/17 08:52:12;;;;;;;4.78;3.88;;;23.60;99.90;;;;;;10096059;28;20029;-78
2023/08/17 08:57:08;;;;;;;6.93;3.40;;;23.70;99.90;;;;;;10078683;28;20032;-71
2023/08/17 09:01:59;;;;;;;5.07;3.63;;;23.80;99.90;;;;;;10099789;28;20024;-70
2023/08/17 09:06:51;;;;;;;6.43;5.05;;;23.90;99.90;;;;;;10103520;28;20031;-71
2023/08/17 09:11:42;;;;;;;6.65;3.67;;;24.00;99.90;;;;;;10095231;28;20061;-72
2023/08/17 09:16:33;;;;;;;4.75;4.03;;;24.10;99.90;;;;;;10094861;28;20053;-71
2023/08/17 09:21:24;;;;;;;4.10;3.05;;;24.10;99.90;;;;;;10076742;28;20029;-73
2023/08/17 09:26:17;;;;;;;6.22;3.55;;;24.20;99.90;;;;;;10090850;28;20386;-73
2023/08/17 09:31:08;;;;;;;4.75;3.47;;;24.30;99.90;;;;;;10078198;28;20087;-75
2023/08/17 09:36:00;;;;;;;7.03;3.72;;;24.50;99.90;;;;;;10095774;28;20524;-71
2023/08/17 09:40:51;;;;;;;5.63;3.65;;;24.60;99.90;;;;;;10107225;28;20344;-69
2023/08/17 09:45:47;;;;;;;8.63;4.47;;;24.60;99.90;;;;;;10091677;28;20033;-71
2023/08/17 09:50:38;;;;;;;6.57;3.40;;;24.60;99.90;;;;;;10113467;28;20028;-72
2023/08/17 09:55:33;;;;;;;7.72;4.82;;;24.60;99.90;;;;;;10102413;28;20037;-72
2023/08/17 10:00:26;;;;;;;7.38;4.20;;;24.80;99.90;;;;;;10089276;28;20536;-71
2023/08/17 10:05:20;;;;;;;7.20;4.25;;;24.90;99.90;;;;;;10097774;28;20415;-72
2023/08/17 10:10:19;;;;;;;9.45;5.07;;;25.00;99.90;;;;;;10097521;28;20033;-72
2023/08/17 10:15:12;;;;;;;7.28;4.80;;;25.10;99.90;;;;;;10109023;28;20037;-71
2023/08/17 10:20:04;;;;;;;6.93;4.85;;;25.10;99.90;;;;;;10109216;28;20028;-71
2023/08/17 10:25:00;;;;;;;8.88;4.82;;;25.20;99.90;;;;;;10110483;28;20033;-71
2023/08/17 10:29:52;;;;;;;7.07;4.25;;;25.30;99.90;;;;;;10100194;28;20127;-72
2023/08/17 10:34:44;;;;;;;7.07;4.65;;;25.40;99.90;;;;;;10105397;28;20530;-72
2023/08/17 10:39:39;;;;;;;10.45;5.90;;;25.40;99.90;;;;;;10085713;28;20033;-73
2023/08/17 10:44:47;;;;;;;9.63;6.13;;;25.40;99.90;;;;;;10090208;28;20025;-72
2023/08/17 10:49:37;;;;;;;6.80;4.95;;;25.40;99.90;;;;;;10088663;28;20029;-71
2023/08/17 10:54:37;;;;;;;12.75;5.30;;;25.60;99.90;;;;;;10088688;28;20049;-70
2023/08/17 10:59:30;;;;;;;6.07;4.22;;;25.60;99.90;;;;;;10085615;28;20117;-68
2023/08/17 11:04:21;;;;;;;8.57;5.23;;;25.70;99.90;;;;;;10072882;28;20424;-68
2023/08/17 11:09:16;;;;;;;7.78;5.22;;;25.70;99.90;;;;;;10087475;28;20032;-69
2023/08/17 11:14:08;;;;;;;7.72;4.82;;;25.70;99.90;;;;;;10084641;28;20041;-69
2023/08/17 11:19:00;;;;;;;6.85;4.82;;;25.70;99.90;;;;;;10084128;28;20039;-70
2023/08/17 11:23:51;;;;;;;6.60;4.57;;;25.80;99.90;;;;;;10099616;28;20036;-69
2023/08/17 11:28:44;;;;;;;6.72;4.53;;;25.80;99.90;;;;;;10095797;28;20029;-72
2023/08/17 11:33:36;;;;;;;5.47;4.53;;;25.80;99.90;;;;;;10099855;28;20096;-70
2023/08/17 11:38:31;;;;;;;8.23;4.60;;;25.80;99.90;;;;;;10099587;28;20446;-69
2023/08/17 11:43:25;;;;;;;7.30;4.70;;;25.80;99.90;;;;;;10068153;28;20045;-69
2023/08/17 11:48:19;;;;;;;6.88;4.88;;;25.90;99.90;;;;;;10072897;28;20128;-69
2023/08/17 11:53:10;;;;;;;6.53;4.63;;;25.90;99.90;;;;;;10080346;28;20044;-69
2023/08/17 11:58:02;;;;;;;8.10;4.90;;;26.00;99.90;;;;;;10090611;28;20029;-70
2023/08/17 12:02:53;;;;;;;7.63;4.63;;;26.00;99.90;;;;;;10074842;28;20159;-69
2023/08/17 12:07:45;;;;;;;8.38;5.00;;;26.10;99.90;;;;;;10078623;28;20029;-69
2023/08/17 12:12:38;;;;;;;8.88;5.20;;;26.10;99.90;;;;;;10080308;28;20046;-69
2023/08/17 12:17:28;;;;;;;9.30;4.95;;;26.30;99.90;;;;;;10087779;28;20037;-69
2023/08/17 12:22:23;;;;;;;9.43;5.45;;;26.40;99.90;;;;;;10091709;28;20033;-69
2023/08/17 12:27:13;;;;;;;7.70;4.95;;;26.60;99.90;;;;;;10095308;28;20041;-70
2023/08/17 12:32:04;;;;;;;6.20;4.70;;;26.60;99.90;;;;;;10087765;28;20032;-69
2023/08/17 12:36:55;;;;;;;6.38;4.97;;;26.70;99.90;;;;;;10075332;28;20036;-69
2023/08/17 12:41:45;;;;;;;6.80;4.85;;;26.80;99.90;;;;;;10075284;28;20206;-71
2023/08/17 12:46:37;;;;;;;6.93;4.88;;;26.90;99.90;;;;;;10048614;28;20029;-68
2023/08/17 12:51:28;;;;;;;8.93;5.03;;;26.90;99.90;;;;;;10095171;28;20033;-70
2023/08/17 12:56:19;;;;;;;5.68;4.70;;;27.00;99.90;;;;;;10082530;28;20537;-70
2023/08/17 13:01:13;;;;;;;4.88;4.30;;;27.10;99.90;;;;;;10072350;28;20025;-70
2023/08/17 13:06:04;;;;;;;5.75;4.38;;;27.20;99.90;;;;;;10081483;28;20054;-71
2023/08/17 13:10:55;;;;;;;5.82;4.30;;;27.40;99.90;;;;;;10085176;28;20060;-70
2023/08/17 13:15:46;;;;;;;6.28;3.92;;;27.50;99.90;;;;;;10086050;28;20037;-71
2023/08/17 13:20:38;;;;;;;4.60;4.07;;;27.50;99.90;;;;;;10090276;28;20028;-70
2023/08/17 13:25:29;;;;;;;4.93;3.97;;;27.50;99.90;;;;;;10090200;28;20037;-70
2023/08/17 13:30:20;;;;;;;6.22;3.70;;;27.50;99.90;;;;;;10092171;28;20502;-70
2023/08/17 13:35:10;;;;;;;6.30;4.35;;;27.60;99.90;;;;;;10094816;28;20044;-72
2023/08/17 13:40:01;;;;;;;5.75;4.20;;;27.60;99.90;;;;;;10090380;28;20018;-70
2023/08/17 13:44:52;;;;;;;6.15;4.40;;;27.60;99.90;;;;;;10088207;28;20519;-71
2023/08/17 13:49:46;;;;;;;4.53;4.03;;;27.70;99.90;;;;;;10089334;28;20025;-70
2023/08/17 13:54:37;;;;;;;5.57;5.05;;;27.70;99.90;;;;;;10075019;28;20095;-71
2023/08/17 13:59:29;;;;;;;6.40;4.90;;;27.80;99.90;;;;;;10092416;28;20040;-71
2023/08/17 14:04:20;;;;;;;5.72;4.95;;;27.90;99.90;;;;;;10099462;28;20116;-71
2023/08/17 14:09:13;;;;;;;5.82;4.22;;;28.00;99.90;;;;;;10074376;28;20096;-69
2023/08/17 14:14:04;;;;;;;5.35;4.18;;;28.00;99.90;;;;;;10085337;28;20442;-70
2023/08/17 14:18:55;;;;;;;7.50;4.65;;;28.00;99.90;;;;;;10089748;28;20503;-72
2023/08/17 14:23:46;;;;;;;8.63;5.50;;;28.10;99.90;;;;;;10078522;28;20032;-72
2023/08/17 14:28:37;;;;;;;5.80;4.32;;;28.10;99.90;;;;;;10092655;28;20025;-72
2023/08/17 14:33:27;;;;;;;7.60;5.20;;;28.10;99.90;;;;;;10091059;28;20439;-69
2023/08/17 14:38:19;;;;;;;7.15;5.07;;;28.00;99.90;;;;;;10088208;28;20033;-69
2023/08/17 14:43:11;;;;;;;4.60;3.80;;;28.10;99.90;;;;;;10085975;28;20029;-71
2023/08/17 14:48:03;;;;;;;6.97;4.22;;;28.10;99.90;;;;;;10081381;28;20024;-71
2023/08/17 14:52:54;;;;;;;5.55;4.13;;;28.00;99.90;;;;;;10086612;28;20035;-69
2023/08/17 14:57:44;;;;;;;4.72;3.90;;;28.10;99.90;;;;;;10092628;28;20514;-70
2023/08/17 15:02:35;;;;;;;7.13;4.20;;;28.10;99.90;;;;;;10095042;28;20029;-69
2023/08/17 15:07:26;;;;;;;7.13;4.53;;;28.30;99.90;;;;;;10108915;28;20044;-69
2023/08/17 15:12:16;;;;;;;6.57;4.32;;;28.50;99.90;;;;;;10100521;28;20522;-72
2023/08/17 15:17:12;;;;;;;6.65;4.60;;;28.60;99.90;;;;;;10100774;28;20025;-73
2023/08/17 15:22:04;;;;;;;7.85;4.60;;;29.00;99.90;;;;;;10100448;28;20049;-72
2023/08/17 15:26:54;;;;;;;5.22;4.43;;;29.60;99.90;;;;;;10083248;28;20108;-70
2023/08/17 15:31:45;;;;;;;5.80;3.53;;;30.00;99.90;;;;;;10097546;28;20032;-71
2023/08/17 15:36:35;;;;;;;8.23;4.63;;;29.90;99.90;;;;;;10104311;28;20064;-71
2023/08/17 15:41:26;;;;;;;4.03;3.47;;;29.70;99.90;;;;;;10115235;28;20410;-71
2023/08/17 15:46:17;;;;;;;5.85;4.03;;;30.00;99.90;;;;;;10098858;28;20037;-73
2023/08/17 15:51:08;;;;;;;4.70;3.70;;;30.50;99.90;;;;;;10096383;28;20021;-72
2023/08/17 15:55:59;;;;;;;7.57;3.65;;;31.00;99.90;;;;;;10091198;28;20040;-71
2023/08/17 16:00:52;;;;;;;7.07;3.70;;;31.50;99.90;;;;;;10095790;28;20056;-71
2023/08/17 16:05:43;;;;;;;4.68;3.72;;;31.70;99.90;;;;;;10093072;28;20483;-71
2023/08/17 16:10:34;;;;;;;5.60;3.83;;;31.30;99.90;;;;;;10089173;28;20083;-71
2023/08/17 16:15:25;;;;;;;3.78;3.42;;;30.90;99.90;;;;;;10092640;28;20040;-72
2023/08/17 16:20:16;;;;;;;6.30;4.20;;;30.80;99.90;;;;;;10090230;28;20071;-76
2023/08/17 16:25:07;;;;;;;5.28;3.63;;;30.70;99.90;;;;;;10089167;28;20024;-75
2023/08/17 16:30:02;;;;;;;5.60;4.10;;;30.70;99.90;;;;;;10076707;28;20566;-76
2023/08/17 16:34:53;;;;;;;7.07;4.68;;;30.70;99.90;;;;;;10105472;28;20072;-77
2023/08/17 16:39:44;;;;;;;7.38;4.20;;;30.80;99.90;;;;;;10096219;28;20519;-75
2023/08/17 16:44:34;;;;;;;8.57;4.10;;;31.00;99.90;;;;;;10097940;28;20041;-76
2023/08/17 16:49:25;;;;;;;4.50;3.70;;;31.40;99.90;;;;;;10084587;28;20024;-75
2023/08/17 16:54:16;;;;;;;4.47;3.75;;;31.80;99.90;;;;;;10081555;28;20079;-75
2023/08/17 16:59:07;;;;;;;4.15;3.30;;;32.20;99.90;;;;;;10097286;28;20042;-76
2023/08/17 17:03:58;;;;;;;8.05;3.67;;;32.30;99.90;;;;;;10099800;28;20926;-76
2023/08/17 17:08:49;;;;;;;6.50;4.03;;;32.40;99.90;;;;;;10096192;28;20071;-75
2023/08/17 17:13:39;;;;;;;7.85;4.57;;;32.10;99.90;;;;;;10100613;28;20498;-76
2023/08/17 17:18:30;;;;;;;6.45;4.07;;;32.30;99.90;;;;;;10078711;28;20052;-74
2023/08/17 17:23:20;;;;;;;6.43;4.38;;;32.30;99.90;;;;;;10097632;28;20733;-75
2023/08/17 17:28:11;;;;;;;4.93;3.50;;;32.20;99.90;;;;;;10096566;28;20024;-75
2023/08/17 17:33:02;;;;;;;6.75;4.18;;;32.10;99.90;;;;;;10103875;28;20062;-75
2023/08/17 17:37:52;;;;;;;5.53;4.28;;;31.90;99.90;;;;;;10096487;28;20120;-76
2023/08/17 17:42:43;;;;;;;6.50;3.92;;;31.60;99.90;;;;;;10096233;28;20514;-75
2023/08/17 17:47:37;;;;;;;5.05;4.15;;;31.20;99.90;;;;;;10096393;28;20025;-75
2023/08/17 17:52:28;;;;;;;5.85;4.10;;;31.10;99.90;;;;;;10078179;28;20040;-75
2023/08/17 17:57:19;;;;;;;4.85;3.83;;;30.90;99.90;;;;;;10096718;28;20064;-74
2023/08/17 18:02:09;;;;;;;5.20;3.97;;;30.70;99.90;;;;;;10104944;28;20025;-75
2023/08/17 18:07:00;;;;;;;6.35;4.50;;;30.70;99.90;;;;;;10088086;28;20025;-73
2023/08/17 18:11:50;;;;;;;6.38;4.97;;;30.60;99.90;;;;;;10103597;28;20049;-77
2023/08/17 18:16:41;;;;;;;6.82;4.45;;;30.50;99.90;;;;;;10085692;28;20079;-74
2023/08/17 18:21:32;;;;;;;9.82;5.10;;;30.30;99.90;;;;;;10103316;28;20036;-71
2023/08/17 18:26:22;;;;;;;8.70;6.15;;;30.20;99.90;;;;;;10103121;28;20052;-77
2023/08/17 18:31:13;;;;;;;8.38;5.78;;;30.20;99.90;;;;;;10102686;28;20516;-77
2023/08/17 18:36:04;;;;;;;10.07;5.63;;;30.10;99.90;;;;;;10103406;28;20037;-74
2023/08/17 18:41:06;;;;;;;6.68;4.88;;;30.10;99.90;;;;;;10102851;28;20096;-76
2023/08/17 18:45:57;;;;;;;8.70;4.28;;;30.00;99.90;;;;;;10102387;28;20048;-76
2023/08/17 18:50:48;;;;;;;6.82;5.15;;;29.90;99.90;;;;;;10102484;28;20037;-76
2023/08/17 18:55:38;;;;;;;8.05;5.45;;;29.80;99.90;;;;;;10102114;28;20056;-74
2023/08/17 19:00:30;;;;;;;5.85;5.25;;;29.80;99.90;;;;;;10101034;28;20515;-74
2023/08/17 19:05:20;;;;;;;5.57;4.43;;;29.70;99.90;;;;;;10093488;28;20036;-76
2023/08/17 19:10:11;;;;;;;9.93;5.43;;;29.50;99.90;;;;;;10097323;28;20112;-74
2023/08/17 19:15:03;;;;;;;10.10;5.13;;;29.40;99.90;;;;;;10083331;28;20102;-76
2023/08/17 19:19:53;;;;;;;8.50;5.50;;;29.40;99.90;;;;;;10100751;28;20395;-77
2023/08/17 19:24:45;;;;;;;7.28;4.60;;;29.40;99.90;;;;;;10096806;28;20036;-76
2023/08/17 19:29:36;;;;;;;7.95;4.35;;;29.30;99.90;;;;;;10085208;28;20037;-76
2023/08/17 19:34:27;;;;;;;7.75;4.78;;;29.20;99.90;;;;;;10083868;28;20170;-75
2023/08/17 19:39:18;;;;;;;8.23;5.28;;;29.20;99.90;;;;;;10087229;28;20029;-74
2023/08/17 19:44:09;;;;;;;9.50;5.32;;;29.10;99.90;;;;;;10094833;28;20086;-76
2023/08/17 19:48:59;;;;;;;5.80;4.95;;;29.00;99.90;;;;;;10072196;28;20075;-75
2023/08/17 19:53:53;;;;;;;7.20;5.00;;;29.00;99.90;;;;;;10099476;28;20384;-77
2023/08/17 19:58:45;;;;;;;7.35;5.43;;;28.90;99.90;;;;;;10077425;28;20075;-75
2023/08/17 20:03:36;;;;;;;6.22;4.75;;;28.90;99.90;;;;;;10066153;28;20028;-74
2023/08/17 20:08:27;;;;;;;6.93;4.95;;;28.90;99.90;;;;;;10083698;28;20036;-76
2023/08/17 20:13:18;;;;;;;7.10;5.10;;;28.90;99.90;;;;;;10105688;28;20048;-78
2023/08/17 20:18:09;;;;;;;6.28;4.70;;;28.90;99.90;;;;;;10102142;28;20108;-79
2023/08/17 20:23:00;;;;;;;8.15;5.85;;;28.80;99.90;;;;;;10080829;28;20029;-70
2023/08/17 20:27:51;;;;;;;8.45;5.15;;;28.80;99.90;;;;;;10088672;28;20025;-71
2023/08/17 20:32:41;;;;;;;7.50;5.32;;;28.70;99.90;;;;;;10093426;28;20033;-73
2023/08/17 20:37:32;;;;;;;9.15;6.82;;;28.70;99.90;;;;;;10085249;28;20078;-73
2023/08/17 20:42:23;;;;;;;5.18;4.40;;;28.70;99.90;;;;;;10085872;28;20036;-76
2023/08/17 20:47:13;;;;;;;7.25;4.97;;;28.50;99.90;;;;;;10080623;28;20032;-75
2023/08/17 20:52:04;;;;;;;6.85;5.03;;;28.40;99.90;;;;;;10081153;28;20025;-79
2023/08/17 20:56:58;;;;;;;7.18;5.20;;;28.50;99.90;;;;;;10096295;28;20037;-75
2023/08/17 21:01:48;;;;;;;8.70;5.22;;;28.40;99.90;;;;;;10079733;28;20024;-76
2023/08/17 21:06:41;;;;;;;8.45;5.65;;;28.40;99.90;;;;;;10099598;28;20041;-77
2023/08/17 21:11:32;;;;;;;6.35;4.43;;;28.30;99.90;;;;;;10097818;28;20099;-75
2023/08/17 21:16:22;;;;;;;5.63;5.13;;;28.30;99.90;;;;;;10096284;28;20045;-74
2023/08/17 21:21:13;;;;;;;7.13;4.80;;;28.20;99.90;;;;;;10078575;28;20029;-75
2023/08/17 21:26:04;;;;;;;5.40;4.43;;;28.20;99.90;;;;;;10079008;28;20040;-75
2023/08/17 21:31:03;;;;;;;5.32;4.57;;;28.20;99.90;;;;;;10079418;28;20021;-77
2023/08/17 21:35:58;;;;;;;6.15;4.55;;;28.00;99.90;;;;;;10087113;28;20055;-74
2023/08/17 21:40:48;;;;;;;5.85;4.43;;;28.00;99.90;;;;;;10093874;28;20051;-74
2023/08/17 21:45:39;;;;;;;7.97;4.40;;;28.00;99.90;;;;;;10096377;28;20084;-70
2023/08/17 21:50:30;;;;;;;10.05;5.13;;;27.90;99.90;;;;;;10104896;28;20116;-76
2023/08/17 21:55:20;;;;;;;7.05;5.07;;;27.80;99.90;;;;;;10057869;28;20106;-75
2023/08/17 22:00:11;;;;;;;6.82;4.57;;;27.80;99.90;;;;;;10103064;28;20033;-70
2023/08/17 22:05:02;;;;;;;6.60;5.22;;;27.80;99.90;;;;;;10081584;28;20479;-78
2023/08/17 22:09:53;;;;;;;6.00;4.15;;;27.70;99.90;;;;;;10094795;28;20039;-77
2023/08/17 22:14:43;;;;;;;4.82;4.30;;;27.60;99.90;;;;;;10095682;28;20389;-76
2023/08/17 22:19:38;;;;;;;4.53;4.10;;;27.60;99.90;;;;;;10095505;28;20044;-77
2023/08/17 22:24:29;;;;;;;5.65;4.32;;;27.50;99.90;;;;;;10095672;28;20037;-77
2023/08/17 22:29:20;;;;;;;5.38;4.43;;;27.40;99.90;;;;;;10077608;28;20036;-75
2023/08/17 22:34:10;;;;;;;5.78;4.40;;;27.40;99.90;;;;;;10095751;28;20489;-74
2023/08/17 22:39:01;;;;;;;4.65;4.10;;;27.30;99.90;;;;;;10095134;28;20040;-76
2023/08/17 22:43:52;;;;;;;8.18;4.90;;;27.30;99.90;;;;;;10076897;28;20037;-76
2023/08/17 22:48:43;;;;;;;10.85;4.85;;;27.30;99.90;;;;;;10084886;28;20033;-76
2023/08/17 22:53:33;;;;;;;7.55;4.40;;;27.30;99.90;;;;;;10085908;28;20121;-77
2023/08/17 22:58:24;;;;;;;6.63;5.20;;;27.30;99.90;;;;;;10099796;28;20121;-77
2023/08/17 23:03:15;;;;;;;5.10;4.35;;;27.30;99.90;;;;;;10103334;28;20139;-77
2023/08/17 23:08:06;;;;;;;4.85;4.00;;;27.30;99.90;;;;;;10075650;28;20051;-75
2023/08/17 23:12:57;;;;;;;5.20;4.15;;;27.30;99.90;;;;;;10101957;28;20541;-75
2023/08/17 23:17:48;;;;;;;5.18;4.53;;;27.30;99.90;;;;;;10102629;28;20108;-78
2023/08/17 23:22:39;;;;;;;6.53;4.13;;;27.20;99.90;;;;;;10086042;28;20448;-77
2023/08/17 23:27:30;;;;;;;5.35;4.18;;;27.10;99.90;;;;;;10098539;28;20078;-75
2023/08/17 23:32:21;;;;;;;5.57;4.20;;;27.10;99.90;;;;;;10101125;28;20029;-74
2023/08/17 23:37:11;;;;;;;4.15;3.42;;;27.10;99.90;;;;;;10100412;28;20064;-76
2023/08/17 23:42:03;;;;;;;4.30;3.88;;;27.00;99.90;;;;;;10101027;28;20035;-77
2023/08/17 23:46:54;;;;;;;4.65;3.78;;;26.90;99.90;;;;;;10103437;28;20082;-77
2023/08/17 23:51:44;;;;;;;6.07;4.35;;;26.80;99.90;;;;;;10100272;28;20025;-77
2023/08/17 23:56:35;;;;;;;6.32;4.82;;;26.60;99.90;;;;;;10099175;28;20083;-77
